ETHA

Altenstadt Army Airfield Airport

Altenstadt, Germany
METAR ETHA 190620Z AUTO 27003KT //// // ////// M12/M12 Q1013 ///
Observed Flight Rules
Jan-19 @ 06:20 UTC (25 minutes ago)
Wind
270° at 3 knots
Temperatures Readings
Current -12°C / 10°F
Dewpoint -12°C / 10°F
Humidity 100%
Altimeter 29.91" Hg
Pressure 1012.92 hPa
Elevation 760
METAR ETHA 190620Z AUTO 27003KT //// // ////// M12/M12 Q1013 ///
Observed Flight Rules
Jan-19 @ 06:20 UTC
(25 minutes ago)
Wind
270° at 3 knots
Temperature Dewpoint
-12°C / 10°F -12°C / 10°F
Humidity Altimeter Pressure
100% 29.91" Hg 1012.92 hPa